sensor_id;sensor_type;location;lat;lon;timestamp;pressure;altitude;pressure_sealevel;temperature;humidity
49835;BME280;35729;52.090;13.162;2023-05-23T00:00:09;100543.66;;;17.25;45.66
49835;BME280;35729;52.090;13.162;2023-05-23T00:02:38;100538.59;;;17.21;45.83
49835;BME280;35729;52.090;13.162;2023-05-23T00:05:10;100534.47;;;17.15;46.14
49835;BME280;35729;52.090;13.162;2023-05-23T00:07:39;100527.69;;;17.09;46.24
49835;BME280;35729;52.090;13.162;2023-05-23T00:10:09;100523.50;;;17.05;46.51
49835;BME280;35729;52.090;13.162;2023-05-23T00:12:38;100531.63;;;17.02;46.52
49835;BME280;35729;52.090;13.162;2023-05-23T00:15:07;100528.19;;;17.00;46.96
49835;BME280;35729;52.090;13.162;2023-05-23T00:17:36;100526.53;;;16.98;46.52
49835;BME280;35729;52.090;13.162;2023-05-23T00:20:06;100522.25;;;16.95;46.73
49835;BME280;35729;52.090;13.162;2023-05-23T00:22:39;100521.47;;;16.93;47.08
49835;BME280;35729;52.090;13.162;2023-05-23T00:25:09;100523.38;;;16.91;47.07
49835;BME280;35729;52.090;13.162;2023-05-23T00:27:37;100518.19;;;16.88;46.84
49835;BME280;35729;52.090;13.162;2023-05-23T00:30:07;100513.91;;;16.85;47.09
49835;BME280;35729;52.090;13.162;2023-05-23T00:32:36;100514.91;;;16.83;47.02
49835;BME280;35729;52.090;13.162;2023-05-23T00:35:05;100509.94;;;16.76;47.19
49835;BME280;35729;52.090;13.162;2023-05-23T00:37:34;100511.81;;;16.74;47.14
49835;BME280;35729;52.090;13.162;2023-05-23T00:40:07;100513.69;;;16.72;47.03
49835;BME280;35729;52.090;13.162;2023-05-23T00:42:35;100515.53;;;16.70;47.30
49835;BME280;35729;52.090;13.162;2023-05-23T00:45:05;100521.75;;;16.69;47.34
49835;BME280;35729;52.090;13.162;2023-05-23T00:47:34;100527.06;;;16.69;47.43
49835;BME280;35729;52.090;13.162;2023-05-23T00:50:03;100524.41;;;16.69;47.52
49835;BME280;35729;52.090;13.162;2023-05-23T00:52:32;100522.72;;;16.68;47.36
49835;BME280;35729;52.090;13.162;2023-05-23T00:55:00;100515.78;;;16.66;47.39
49835;BME280;35729;52.090;13.162;2023-05-23T00:57:31;100518.44;;;16.66;47.42
49835;BME280;35729;52.090;13.162;2023-05-23T01:00:06;100516.81;;;16.63;47.36
49835;BME280;35729;52.090;13.162;2023-05-23T01:02:39;100523.88;;;16.63;47.76
49835;BME280;35729;52.090;13.162;2023-05-23T01:05:09;100519.50;;;16.61;47.75
49835;BME280;35729;52.090;13.162;2023-05-23T01:07:38;100529.34;;;16.59;47.52
49835;BME280;35729;52.090;13.162;2023-05-23T01:10:08;100541.72;;;16.59;47.60
49835;BME280;35729;52.090;13.162;2023-05-23T01:12:48;100547.31;;;16.53;49.03
49835;BME280;35729;52.090;13.162;2023-05-23T01:15:20;100543.56;;;16.39;48.28
49835;BME280;35729;52.090;13.162;2023-05-23T01:17:55;100526.56;;;16.26;48.69
49835;BME280;35729;52.090;13.162;2023-05-23T01:20:30;100520.00;;;16.16;48.82
49835;BME280;35729;52.090;13.162;2023-05-23T01:26:03;100510.72;;;16.07;49.18
49835;BME280;35729;52.090;13.162;2023-05-23T01:28:44;100524.88;;;16.06;49.04
49835;BME280;35729;52.090;13.162;2023-05-23T01:31:15;100518.66;;;16.07;49.27
49835;BME280;35729;52.090;13.162;2023-05-23T01:33:45;100523.16;;;16.05;49.33
49835;BME280;35729;52.090;13.162;2023-05-23T01:36:18;100504.72;;;16.03;49.18
49835;BME280;35729;52.090;13.162;2023-05-23T01:38:46;100497.56;;;16.05;49.32
49835;BME280;35729;52.090;13.162;2023-05-23T01:41:15;100487.84;;;16.06;49.59
49835;BME280;35729;52.090;13.162;2023-05-23T01:43:46;100487.84;;;16.06;49.68
49835;BME280;35729;52.090;13.162;2023-05-23T01:46:15;100484.34;;;16.05;49.89
49835;BME280;35729;52.090;13.162;2023-05-23T01:48:44;100482.63;;;16.04;49.75
49835;BME280;35729;52.090;13.162;2023-05-23T01:51:13;100485.28;;;16.04;49.75
49835;BME280;35729;52.090;13.162;2023-05-23T01:53:42;100484.44;;;16.04;50.09
49835;BME280;35729;52.090;13.162;2023-05-23T01:56:11;100481.69;;;16.05;49.82
49835;BME280;35729;52.090;13.162;2023-05-23T01:58:40;100478.19;;;16.05;49.98
49835;BME280;35729;52.090;13.162;2023-05-23T02:01:12;100487.13;;;16.02;50.04
49835;BME280;35729;52.090;13.162;2023-05-23T02:03:41;100483.72;;;16.00;50.17
49835;BME280;35729;52.090;13.162;2023-05-23T02:06:09;100480.28;;;15.98;50.07
49835;BME280;35729;52.090;13.162;2023-05-23T02:08:38;100479.47;;;15.96;50.26
49835;BME280;35729;52.090;13.162;2023-05-23T02:11:06;100482.13;;;15.96;50.40
49835;BME280;35729;52.090;13.162;2023-05-23T02:13:35;100477.78;;;15.95;50.43
49835;BME280;35729;52.090;13.162;2023-05-23T02:16:04;100483.09;;;15.95;50.23
49835;BME280;35729;52.090;13.162;2023-05-23T02:18:35;100469.84;;;15.95;50.24
49835;BME280;35729;52.090;13.162;2023-05-23T02:21:05;100475.16;;;15.95;50.49
49835;BME280;35729;52.090;13.162;2023-05-23T02:23:33;100479.56;;;15.94;50.51
49835;BME280;35729;52.090;13.162;2023-05-23T02:26:02;100480.50;;;15.93;50.65
49835;BME280;35729;52.090;13.162;2023-05-23T02:28:30;100484.84;;;15.94;50.73
49835;BME280;35729;52.090;13.162;2023-05-23T02:30:59;100489.44;;;15.91;50.89
49835;BME280;35729;52.090;13.162;2023-05-23T02:33:27;100501.09;;;15.87;51.32
49835;BME280;35729;52.090;13.162;2023-05-23T02:35:58;100510.97;;;15.83;52.27
49835;BME280;35729;52.090;13.162;2023-05-23T02:38:27;100507.72;;;15.76;51.95
49835;BME280;35729;52.090;13.162;2023-05-23T02:40:55;100510.38;;;15.76;52.09
49835;BME280;35729;52.090;13.162;2023-05-23T02:43:25;100513.09;;;15.75;52.66
49835;BME280;35729;52.090;13.162;2023-05-23T02:45:53;100496.44;;;15.73;52.95
49835;BME280;35729;52.090;13.162;2023-05-23T02:48:22;100494.66;;;15.73;53.69
49835;BME280;35729;52.090;13.162;2023-05-23T02:50:51;100491.16;;;15.73;53.45
49835;BME280;35729;52.090;13.162;2023-05-23T02:53:22;100492.06;;;15.72;53.96
49835;BME280;35729;52.090;13.162;2023-05-23T02:55:50;100481.56;;;15.70;54.02
49835;BME280;35729;52.090;13.162;2023-05-23T02:58:19;100473.63;;;15.70;54.67
49835;BME280;35729;52.090;13.162;2023-05-23T03:00:48;100452.47;;;15.70;55.51
49835;BME280;35729;52.090;13.162;2023-05-23T03:03:17;100451.56;;;15.71;56.16
49835;BME280;35729;52.090;13.162;2023-05-23T03:05:45;100452.47;;;15.70;56.62
49835;BME280;35729;52.090;13.162;2023-05-23T03:08:14;100459.63;;;15.68;57.21
49835;BME280;35729;52.090;13.162;2023-05-23T03:10:45;100461.50;;;15.66;57.61
49835;BME280;35729;52.090;13.162;2023-05-23T03:13:13;100456.28;;;15.64;57.96
49835;BME280;35729;52.090;13.162;2023-05-23T03:15:42;100452.00;;;15.62;58.18
49835;BME280;35729;52.090;13.162;2023-05-23T03:18:10;100461.78;;;15.60;58.57
49835;BME280;35729;52.090;13.162;2023-05-23T03:20:39;100455.69;;;15.58;58.84
49835;BME280;35729;52.090;13.162;2023-05-23T03:23:08;100447.75;;;15.58;59.37
49835;BME280;35729;52.090;13.162;2023-05-23T03:25:36;100448.69;;;15.57;59.77
49835;BME280;35729;52.090;13.162;2023-05-23T03:28:07;100446.03;;;15.57;60.79
49835;BME280;35729;52.090;13.162;2023-05-23T03:30:36;100443.56;;;15.54;60.33
49835;BME280;35729;52.090;13.162;2023-05-23T03:33:05;100447.13;;;15.53;60.28
49835;BME280;35729;52.090;13.162;2023-05-23T03:35:34;100452.56;;;15.50;60.60
49835;BME280;35729;52.090;13.162;2023-05-23T03:38:02;100442.09;;;15.48;60.66
49835;BME280;35729;52.090;13.162;2023-05-23T03:40:31;100442.22;;;15.45;60.44
49835;BME280;35729;52.090;13.162;2023-05-23T03:43:03;100453.78;;;15.42;60.46
49835;BME280;35729;52.090;13.162;2023-05-23T03:45:35;100463.56;;;15.40;60.69
49835;BME280;35729;52.090;13.162;2023-05-23T03:48:03;100461.06;;;15.37;60.20
49835;BME280;35729;52.090;13.162;2023-05-23T03:50:32;100471.78;;;15.34;60.28
49835;BME280;35729;52.090;13.162;2023-05-23T03:53:00;100486.06;;;15.30;60.41
49835;BME280;35729;52.090;13.162;2023-05-23T03:55:30;100480.22;;;15.23;60.59
49835;BME280;35729;52.090;13.162;2023-05-23T03:57:58;100481.28;;;15.19;60.91
49835;BME280;35729;52.090;13.162;2023-05-23T04:00:27;100491.91;;;15.18;61.28
49835;BME280;35729;52.090;13.162;2023-05-23T04:02:58;100490.31;;;15.13;61.62
49835;BME280;35729;52.090;13.162;2023-05-23T04:05:27;100492.31;;;15.08;61.50
49835;BME280;35729;52.090;13.162;2023-05-23T04:07:55;100502.09;;;15.06;61.96
49835;BME280;35729;52.090;13.162;2023-05-23T04:10:25;100496.16;;;15.01;62.95
49835;BME280;35729;52.090;13.162;2023-05-23T04:12:54;100490.19;;;14.97;63.28
49835;BME280;35729;52.090;13.162;2023-05-23T04:15:23;100502.66;;;14.94;63.89
49835;BME280;35729;52.090;13.162;2023-05-23T04:17:52;100505.50;;;14.89;64.26
49835;BME280;35729;52.090;13.162;2023-05-23T04:20:30;100509.97;;;14.87;65.57
49835;BME280;35729;52.090;13.162;2023-05-23T04:22:58;100501.38;;;14.82;65.03
49835;BME280;35729;52.090;13.162;2023-05-23T04:25:27;100510.44;;;14.76;65.41
49835;BME280;35729;52.090;13.162;2023-05-23T04:27:55;100506.22;;;14.72;65.50
49835;BME280;35729;52.090;13.162;2023-05-23T04:30:24;100490.50;;;14.69;65.81
49835;BME280;35729;52.090;13.162;2023-05-23T04:32:54;100495.94;;;14.66;65.78
49835;BME280;35729;52.090;13.162;2023-05-23T04:35:24;100501.28;;;14.63;66.27
49835;BME280;35729;52.090;13.162;2023-05-23T04:37:55;100499.72;;;14.59;66.24
49835;BME280;35729;52.090;13.162;2023-05-23T04:40:24;100502.41;;;14.57;66.45
49835;BME280;35729;52.090;13.162;2023-05-23T04:42:52;100505.97;;;14.56;66.49
49835;BME280;35729;52.090;13.162;2023-05-23T04:45:21;100508.63;;;14.56;66.79
49835;BME280;35729;52.090;13.162;2023-05-23T04:47:50;100510.38;;;14.56;66.93
49835;BME280;35729;52.090;13.162;2023-05-23T04:50:20;100503.41;;;14.55;66.83
49835;BME280;35729;52.090;13.162;2023-05-23T04:52:49;100507.81;;;14.54;67.05
49835;BME280;35729;52.090;13.162;2023-05-23T04:55:20;100510.38;;;14.56;67.41
49835;BME280;35729;52.090;13.162;2023-05-23T04:57:49;100506.91;;;14.55;67.72
49835;BME280;35729;52.090;13.162;2023-05-23T05:00:18;100506.97;;;14.54;67.66
49835;BME280;35729;52.090;13.162;2023-05-23T05:02:46;100497.25;;;14.54;67.92
49835;BME280;35729;52.090;13.162;2023-05-23T05:05:15;100495.59;;;14.52;67.83
49835;BME280;35729;52.090;13.162;2023-05-23T05:07:43;100499.31;;;14.47;67.96
49835;BME280;35729;52.090;13.162;2023-05-23T05:10:13;100502.69;;;14.51;68.09
49835;BME280;35729;52.090;13.162;2023-05-23T05:12:45;100508.88;;;14.50;67.81
49835;BME280;35729;52.090;13.162;2023-05-23T05:15:15;100507.06;;;14.50;68.04
49835;BME280;35729;52.090;13.162;2023-05-23T05:17:44;100508.03;;;14.49;67.89
49835;BME280;35729;52.090;13.162;2023-05-23T05:20:13;100498.38;;;14.48;68.02
49835;BME280;35729;52.090;13.162;2023-05-23T05:22:41;100495.75;;;14.48;68.08
49835;BME280;35729;52.090;13.162;2023-05-23T05:25:10;100501.88;;;14.49;68.21
49835;BME280;35729;52.090;13.162;2023-05-23T05:27:39;100504.50;;;14.49;68.15
49835;BME280;35729;52.090;13.162;2023-05-23T05:30:11;100502.75;;;14.49;68.43
49835;BME280;35729;52.090;13.162;2023-05-23T05:32:40;100506.31;;;14.48;68.31
49835;BME280;35729;52.090;13.162;2023-05-23T05:35:10;100503.78;;;14.45;68.59
49835;BME280;35729;52.090;13.162;2023-05-23T05:37:39;100509.13;;;14.44;68.58
49835;BME280;35729;52.090;13.162;2023-05-23T05:40:08;100503.91;;;14.42;68.49
49835;BME280;35729;52.090;13.162;2023-05-23T05:42:37;100501.34;;;14.41;68.63
49835;BME280;35729;52.090;13.162;2023-05-23T05:45:06;100503.13;;;14.40;68.54
49835;BME280;35729;52.090;13.162;2023-05-23T05:47:38;100497.84;;;14.40;69.66
49835;BME280;35729;52.090;13.162;2023-05-23T05:50:07;100509.31;;;14.39;68.93
49835;BME280;35729;52.090;13.162;2023-05-23T05:52:44;100497.91;;;14.39;68.82
49835;BME280;35729;52.090;13.162;2023-05-23T05:55:12;100499.56;;;14.41;69.17
49835;BME280;35729;52.090;13.162;2023-05-23T05:57:41;100508.28;;;14.43;68.86
49835;BME280;35729;52.090;13.162;2023-05-23T06:00:12;100505.56;;;14.45;69.17
49835;BME280;35729;52.090;13.162;2023-05-23T06:02:46;100517.84;;;14.46;69.36
49835;BME280;35729;52.090;13.162;2023-05-23T06:05:16;100523.97;;;14.46;69.31
49835;BME280;35729;52.090;13.162;2023-05-23T06:07:47;100518.63;;;14.48;69.46
49835;BME280;35729;52.090;13.162;2023-05-23T06:10:16;100525.56;;;14.50;69.93
49835;BME280;35729;52.090;13.162;2023-05-23T06:12:44;100516.66;;;14.53;69.82
49835;BME280;35729;52.090;13.162;2023-05-23T06:15:13;100519.94;;;14.58;69.79
49835;BME280;35729;52.090;13.162;2023-05-23T06:17:41;100520.69;;;14.62;70.24
49835;BME280;35729;52.090;13.162;2023-05-23T06:20:12;100517.81;;;14.68;70.14
49835;BME280;35729;52.090;13.162;2023-05-23T06:22:41;100519.34;;;14.74;70.01
49835;BME280;35729;52.090;13.162;2023-05-23T06:25:10;100511.88;;;14.83;69.81
49835;BME280;35729;52.090;13.162;2023-05-23T06:27:38;100517.50;;;14.96;69.74
49835;BME280;35729;52.090;13.162;2023-05-23T06:30:08;100510.75;;;15.10;69.40
49835;BME280;35729;52.090;13.162;2023-05-23T06:32:36;100508.44;;;15.23;69.08
49835;BME280;35729;52.090;13.162;2023-05-23T06:35:06;100507.84;;;15.35;69.17
49835;BME280;35729;52.090;13.162;2023-05-23T06:37:37;100506.50;;;15.45;69.07
49835;BME280;35729;52.090;13.162;2023-05-23T06:40:10;100521.88;;;15.56;68.64
49835;BME280;35729;52.090;13.162;2023-05-23T06:42:39;100517.97;;;15.65;68.23
49835;BME280;35729;52.090;13.162;2023-05-23T06:45:09;100520.97;;;15.76;67.94
49835;BME280;35729;52.090;13.162;2023-05-23T06:47:37;100516.84;;;15.90;67.44
49835;BME280;35729;52.090;13.162;2023-05-23T06:50:08;100513.47;;;16.05;66.94
49835;BME280;35729;52.090;13.162;2023-05-23T06:52:40;100523.22;;;16.22;65.42
49835;BME280;35729;52.090;13.162;2023-05-23T06:55:11;100525.16;;;16.36;64.18
49835;BME280;35729;52.090;13.162;2023-05-23T06:57:42;100525.50;;;16.48;64.06
49835;BME280;35729;52.090;13.162;2023-05-23T07:00:12;100522.47;;;16.55;63.23
49835;BME280;35729;52.090;13.162;2023-05-23T07:02:41;100522.16;;;16.61;63.47
49835;BME280;35729;52.090;13.162;2023-05-23T07:05:10;100525.28;;;16.70;63.38
49835;BME280;35729;52.090;13.162;2023-05-23T07:07:41;100527.38;;;16.81;63.42
49835;BME280;35729;52.090;13.162;2023-05-23T07:10:10;100520.75;;;16.89;63.11
49835;BME280;35729;52.090;13.162;2023-05-23T07:12:38;100518.59;;;16.98;62.77
49835;BME280;35729;52.090;13.162;2023-05-23T07:15:10;100521.69;;;17.06;62.61
49835;BME280;35729;52.090;13.162;2023-05-23T07:17:39;100525.50;;;17.18;62.71
49835;BME280;35729;52.090;13.162;2023-05-23T07:20:08;100521.41;;;17.28;62.29
49835;BME280;35729;52.090;13.162;2023-05-23T07:22:37;100516.22;;;17.42;62.69
49835;BME280;35729;52.090;13.162;2023-05-23T07:25:09;100518.91;;;17.58;62.49
49835;BME280;35729;52.090;13.162;2023-05-23T07:27:37;100505.81;;;17.71;61.93
49835;BME280;35729;52.090;13.162;2023-05-23T07:30:15;100511.22;;;17.86;62.16
49835;BME280;35729;52.090;13.162;2023-05-23T07:32:44;100513.38;;;17.95;61.76
49835;BME280;35729;52.090;13.162;2023-05-23T07:35:13;100517.31;;;18.04;61.53
49835;BME280;35729;52.090;13.162;2023-05-23T07:37:42;100514.06;;;18.15;61.58
49835;BME280;35729;52.090;13.162;2023-05-23T07:40:14;100518.66;;;18.27;61.30
49835;BME280;35729;52.090;13.162;2023-05-23T07:42:43;100514.59;;;18.36;60.81
49835;BME280;35729;52.090;13.162;2023-05-23T07:45:12;100520.34;;;18.44;60.77
49835;BME280;35729;52.090;13.162;2023-05-23T07:47:40;100527.38;;;18.45;61.26
49835;BME280;35729;52.090;13.162;2023-05-23T07:50:10;100503.63;;;18.42;60.89
49835;BME280;35729;52.090;13.162;2023-05-23T07:52:39;100510.31;;;18.49;60.53
49835;BME280;35729;52.090;13.162;2023-05-23T07:55:08;100499.31;;;18.55;59.98
49835;BME280;35729;52.090;13.162;2023-05-23T07:57:39;100506.34;;;18.56;59.44
49835;BME280;35729;52.090;13.162;2023-05-23T08:00:09;100511.78;;;18.69;59.67
49835;BME280;35729;52.090;13.162;2023-05-23T08:02:39;100511.06;;;18.82;59.44
49835;BME280;35729;52.090;13.162;2023-05-23T08:05:08;100516.78;;;18.90;59.32
49835;BME280;35729;52.090;13.162;2023-05-23T08:07:37;100509.94;;;19.00;59.50
49835;BME280;35729;52.090;13.162;2023-05-23T08:10:07;100511.09;;;19.11;59.60
49835;BME280;35729;52.090;13.162;2023-05-23T08:12:35;100518.25;;;19.25;59.66
49835;BME280;35729;52.090;13.162;2023-05-23T08:15:08;100513.19;;;19.34;60.17
49835;BME280;35729;52.090;13.162;2023-05-23T08:17:37;100529.72;;;19.40;59.60
49835;BME280;35729;52.090;13.162;2023-05-23T08:20:06;100542.75;;;19.44;59.80
49835;BME280;35729;52.090;13.162;2023-05-23T08:22:36;100537.97;;;19.49;60.03
49835;BME280;35729;52.090;13.162;2023-05-23T08:25:05;100557.06;;;19.56;61.09
49835;BME280;35729;52.090;13.162;2023-05-23T08:27:34;100541.03;;;19.58;61.09
49835;BME280;35729;52.090;13.162;2023-05-23T08:30:04;100540.38;;;19.54;61.74
49835;BME280;35729;52.090;13.162;2023-05-23T08:32:36;100545.69;;;19.54;61.98
49835;BME280;35729;52.090;13.162;2023-05-23T08:35:06;100546.63;;;19.53;62.84
49835;BME280;35729;52.090;13.162;2023-05-23T08:37:34;100545.28;;;19.46;64.11
49835;BME280;35729;52.090;13.162;2023-05-23T08:40:06;100549.69;;;19.47;64.48
49835;BME280;35729;52.090;13.162;2023-05-23T08:42:39;100553.09;;;19.49;64.53
49835;BME280;35729;52.090;13.162;2023-05-23T08:45:09;100558.44;;;19.49;64.90
49835;BME280;35729;52.090;13.162;2023-05-23T08:47:41;100557.19;;;19.54;65.22
49835;BME280;35729;52.090;13.162;2023-05-23T08:50:12;100560.41;;;19.60;65.19
49835;BME280;35729;52.090;13.162;2023-05-23T08:52:47;100554.81;;;19.64;65.06
49835;BME280;35729;52.090;13.162;2023-05-23T08:55:18;100558.97;;;19.68;65.68
49835;BME280;35729;52.090;13.162;2023-05-23T08:57:47;100553.25;;;19.75;65.57
49835;BME280;35729;52.090;13.162;2023-05-23T09:00:17;100563.91;;;19.75;65.41
49835;BME280;35729;52.090;13.162;2023-05-23T09:02:50;100563.91;;;19.75;66.40
49835;BME280;35729;52.090;13.162;2023-05-23T09:05:19;100553.09;;;19.78;65.67
49835;BME280;35729;52.090;13.162;2023-05-23T09:07:48;100558.13;;;19.82;65.28
49835;BME280;35729;52.090;13.162;2023-05-23T09:10:18;100568.78;;;19.82;65.33
49835;BME280;35729;52.090;13.162;2023-05-23T09:12:47;100570.19;;;19.59;64.93
49835;BME280;35729;52.090;13.162;2023-05-23T09:15:15;100593.66;;;19.24;65.49
49835;BME280;35729;52.090;13.162;2023-05-23T09:17:44;100604.31;;;18.93;65.91
49835;BME280;35729;52.090;13.162;2023-05-23T09:20:16;100614.38;;;18.72;66.81
49835;BME280;35729;52.090;13.162;2023-05-23T09:22:45;100608.63;;;18.64;66.94
49835;BME280;35729;52.090;13.162;2023-05-23T09:25:15;100605.69;;;18.54;67.12
49835;BME280;35729;52.090;13.162;2023-05-23T09:27:43;100608.50;;;18.51;67.21
49835;BME280;35729;52.090;13.162;2023-05-23T09:30:13;100608.50;;;18.51;67.33
49835;BME280;35729;52.090;13.162;2023-05-23T09:32:41;100625.06;;;18.40;67.43
49835;BME280;35729;52.090;13.162;2023-05-23T09:35:10;100607.75;;;18.33;67.24
49835;BME280;35729;52.090;13.162;2023-05-23T09:37:44;100627.38;;;18.30;68.03
49835;BME280;35729;52.090;13.162;2023-05-23T09:40:14;100624.72;;;18.30;67.60
49835;BME280;35729;52.090;13.162;2023-05-23T09:42:43;100624.44;;;18.35;67.25
49835;BME280;35729;52.090;13.162;2023-05-23T09:45:13;100607.56;;;18.36;67.50
49835;BME280;35729;52.090;13.162;2023-05-23T09:47:48;100627.19;;;18.33;67.54
49835;BME280;35729;52.090;13.162;2023-05-23T09:50:18;100628.13;;;18.32;67.32
49835;BME280;35729;52.090;13.162;2023-05-23T09:52:49;100639.09;;;18.26;67.31
49835;BME280;35729;52.090;13.162;2023-05-23T09:55:19;100622.31;;;18.26;66.82
49835;BME280;35729;52.090;13.162;2023-05-23T09:57:52;100640.19;;;18.22;67.18
49835;BME280;35729;52.090;13.162;2023-05-23T10:00:23;100656.22;;;18.20;66.77
49835;BME280;35729;52.090;13.162;2023-05-23T10:03:06;100638.66;;;18.18;66.98
49835;BME280;35729;52.090;13.162;2023-05-23T10:05:46;100642.09;;;18.20;66.58
49835;BME280;35729;52.090;13.162;2023-05-23T10:08:20;100637.72;;;18.19;66.86
49835;BME280;35729;52.090;13.162;2023-05-23T10:13:52;100619.97;;;18.19;66.22
49835;BME280;35729;52.090;13.162;2023-05-23T10:16:27;100631.28;;;18.23;66.32
49835;BME280;35729;52.090;13.162;2023-05-23T10:19:12;100635.66;;;18.24;66.11
49835;BME280;35729;52.090;13.162;2023-05-23T10:21:49;100639.84;;;18.28;66.35
49835;BME280;35729;52.090;13.162;2023-05-23T10:24:21;100643.38;;;18.29;65.91
49835;BME280;35729;52.090;13.162;2023-05-23T10:26:50;100644.06;;;18.32;65.39
49835;BME280;35729;52.090;13.162;2023-05-23T10:29:20;100636.19;;;18.31;65.32
49835;BME280;35729;52.090;13.162;2023-05-23T10:31:49;100644.75;;;18.36;64.89
49835;BME280;35729;52.090;13.162;2023-05-23T10:34:24;100650.00;;;18.37;63.96
49835;BME280;35729;52.090;13.162;2023-05-23T10:36:59;100646.22;;;18.42;64.33
49835;BME280;35729;52.090;13.162;2023-05-23T10:39:39;100631.66;;;18.49;63.90
49835;BME280;35729;52.090;13.162;2023-05-23T10:42:14;100655.28;;;18.53;64.04
49835;BME280;35729;52.090;13.162;2023-05-23T10:44:44;100653.66;;;18.51;63.65
49835;BME280;35729;52.090;13.162;2023-05-23T10:47:24;100651.16;;;18.32;63.37
49835;BME280;35729;52.090;13.162;2023-05-23T10:49:54;100657.94;;;18.21;64.07
49835;BME280;35729;52.090;13.162;2023-05-23T10:52:23;100638.22;;;18.10;64.18
49835;BME280;35729;52.090;13.162;2023-05-23T10:54:56;100658.09;;;18.02;63.94
49835;BME280;35729;52.090;13.162;2023-05-23T10:57:25;100653.72;;;18.01;64.27
49835;BME280;35729;52.090;13.162;2023-05-23T10:59:54;100663.84;;;17.93;64.72
49835;BME280;35729;52.090;13.162;2023-05-23T11:02:25;100662.53;;;17.84;65.15
49835;BME280;35729;52.090;13.162;2023-05-23T11:05:17;100669.22;;;17.75;65.82
49835;BME280;35729;52.090;13.162;2023-05-23T11:07:45;100675.63;;;17.71;65.81
49835;BME280;35729;52.090;13.162;2023-05-23T11:10:17;100676.09;;;17.62;66.39
49835;BME280;35729;52.090;13.162;2023-05-23T11:12:46;100673.16;;;17.51;67.38
49835;BME280;35729;52.090;13.162;2023-05-23T11:15:18;100667.72;;;17.36;68.84
49835;BME280;35729;52.090;13.162;2023-05-23T11:17:50;100670.19;;;17.22;68.39
49835;BME280;35729;52.090;13.162;2023-05-23T11:20:20;100681.28;;;17.13;69.04
49835;BME280;35729;52.090;13.162;2023-05-23T11:22:59;100670.81;;;17.09;68.82
49835;BME280;35729;52.090;13.162;2023-05-23T11:25:44;100669.88;;;17.10;68.78
49835;BME280;35729;52.090;13.162;2023-05-23T11:28:15;100684.88;;;17.12;67.83
49835;BME280;35729;52.090;13.162;2023-05-23T11:30:47;100677.03;;;17.08;68.01
49835;BME280;35729;52.090;13.162;2023-05-23T11:33:16;100679.88;;;17.05;67.71
49835;BME280;35729;52.090;13.162;2023-05-23T11:35:46;100678.94;;;17.06;67.74
49835;BME280;35729;52.090;13.162;2023-05-23T11:38:16;100676.13;;;17.09;68.14
49835;BME280;35729;52.090;13.162;2023-05-23T11:40:47;100666.63;;;17.05;67.94
49835;BME280;35729;52.090;13.162;2023-05-23T11:43:16;100688.59;;;17.07;68.22
49835;BME280;35729;52.090;13.162;2023-05-23T11:45:45;100685.88;;;17.09;68.46
49835;BME280;35729;52.090;13.162;2023-05-23T11:48:14;100683.22;;;17.09;68.96
49835;BME280;35729;52.090;13.162;2023-05-23T11:50:50;100685.00;;;17.08;69.11
49835;BME280;35729;52.090;13.162;2023-05-23T11:53:27;100687.81;;;17.05;69.57
49835;BME280;35729;52.090;13.162;2023-05-23T11:56:00;100684.47;;;17.02;69.41
49835;BME280;35729;52.090;13.162;2023-05-23T11:58:32;100683.63;;;17.01;68.98
49835;BME280;35729;52.090;13.162;2023-05-23T12:01:02;100685.56;;;16.98;69.62
49835;BME280;35729;52.090;13.162;2023-05-23T12:03:31;100693.59;;;16.96;70.53
49835;BME280;35729;52.090;13.162;2023-05-23T12:06:00;100685.47;;;16.99;69.78
49835;BME280;35729;52.090;13.162;2023-05-23T12:08:29;100686.09;;;17.04;69.64
49835;BME280;35729;52.090;13.162;2023-05-23T12:11:00;100692.94;;;17.08;70.14
49835;BME280;35729;52.090;13.162;2023-05-23T12:13:29;100685.09;;;17.07;70.50
49835;BME280;35729;52.090;13.162;2023-05-23T12:15:59;100682.69;;;17.02;70.54
49835;BME280;35729;52.090;13.162;2023-05-23T12:18:29;100690.78;;;16.99;70.97
49835;BME280;35729;52.090;13.162;2023-05-23T12:20:59;100689.97;;;16.97;72.07
49835;BME280;35729;52.090;13.162;2023-05-23T12:23:30;100691.19;;;16.90;72.93
49835;BME280;35729;52.090;13.162;2023-05-23T12:26:04;100694.44;;;16.77;73.30
49835;BME280;35729;52.090;13.162;2023-05-23T12:28:35;100697.31;;;16.73;74.70
49835;BME280;35729;52.090;13.162;2023-05-23T12:31:09;100698.75;;;16.61;75.06
49835;BME280;35729;52.090;13.162;2023-05-23T12:33:37;100707.78;;;16.57;75.44
49835;BME280;35729;52.090;13.162;2023-05-23T12:36:08;100710.84;;;16.48;76.49
49835;BME280;35729;52.090;13.162;2023-05-23T12:38:37;100700.88;;;16.35;77.02
49835;BME280;35729;52.090;13.162;2023-05-23T12:41:15;100699.53;;;16.25;77.88
49835;BME280;35729;52.090;13.162;2023-05-23T12:43:48;100705.13;;;16.19;78.61
49835;BME280;35729;52.090;13.162;2023-05-23T12:46:17;100704.47;;;16.13;78.32
49835;BME280;35729;52.090;13.162;2023-05-23T12:48:46;100709.28;;;16.05;79.71
49835;BME280;35729;52.090;13.162;2023-05-23T12:51:15;100707.69;;;16.01;79.69
49835;BME280;35729;52.090;13.162;2023-05-23T12:53:44;100712.28;;;15.98;81.43
49835;BME280;35729;52.090;13.162;2023-05-23T12:56:15;100717.69;;;15.94;81.23
49835;BME280;35729;52.090;13.162;2023-05-23T12:58:44;100708.31;;;15.87;82.14
49835;BME280;35729;52.090;13.162;2023-05-23T13:01:12;100711.81;;;15.88;82.89